sensor_id;sensor_type;location;lat;lon;timestamp;P1;durP1;ratioP1;P2;durP2;ratioP2
46815;SDS011;32787;53.316;8.670;2023-03-14T00:02:08;19.35;;;4.38;;
46815;SDS011;32787;53.316;8.670;2023-03-14T00:04:34;19.73;;;4.18;;
46815;SDS011;32787;53.316;8.670;2023-03-14T00:07:00;22.30;;;4.03;;
46815;SDS011;32787;53.316;8.670;2023-03-14T00:09:26;20.92;;;4.28;;
46815;SDS011;32787;53.316;8.670;2023-03-14T00:11:54;19.25;;;3.95;;
46815;SDS011;32787;53.316;8.670;2023-03-14T00:14:21;20.75;;;3.83;;
46815;SDS011;32787;53.316;8.670;2023-03-14T00:16:46;26.67;;;4.18;;
46815;SDS011;32787;53.316;8.670;2023-03-14T00:19:12;21.55;;;4.15;;
46815;SDS011;32787;53.316;8.670;2023-03-14T00:21:38;25.23;;;4.60;;
46815;SDS011;32787;53.316;8.670;2023-03-14T00:24:04;21.65;;;4.10;;
46815;SDS011;32787;53.316;8.670;2023-03-14T00:26:30;24.00;;;4.25;;
46815;SDS011;32787;53.316;8.670;2023-03-14T00:28:56;17.20;;;3.72;;
46815;SDS011;32787;53.316;8.670;2023-03-14T00:31:21;20.92;;;4.43;;
46815;SDS011;32787;53.316;8.670;2023-03-14T00:33:47;19.10;;;4.10;;
46815;SDS011;32787;53.316;8.670;2023-03-14T00:36:14;25.52;;;4.38;;
46815;SDS011;32787;53.316;8.670;2023-03-14T00:38:41;21.75;;;4.07;;
46815;SDS011;32787;53.316;8.670;2023-03-14T00:41:09;25.52;;;4.20;;
46815;SDS011;32787;53.316;8.670;2023-03-14T00:43:37;17.25;;;3.85;;
46815;SDS011;32787;53.316;8.670;2023-03-14T00:46:03;19.02;;;3.83;;
46815;SDS011;32787;53.316;8.670;2023-03-14T00:48:29;16.40;;;3.55;;
46815;SDS011;32787;53.316;8.670;2023-03-14T00:50:54;15.98;;;3.40;;
46815;SDS011;32787;53.316;8.670;2023-03-14T00:53:20;15.63;;;3.92;;
46815;SDS011;32787;53.316;8.670;2023-03-14T00:55:46;23.58;;;3.95;;
46815;SDS011;32787;53.316;8.670;2023-03-14T00:58:12;16.02;;;3.35;;
46815;SDS011;32787;53.316;8.670;2023-03-14T01:00:40;15.93;;;3.78;;
46815;SDS011;32787;53.316;8.670;2023-03-14T01:03:07;17.65;;;3.88;;
46815;SDS011;32787;53.316;8.670;2023-03-14T01:05:33;19.05;;;3.97;;
46815;SDS011;32787;53.316;8.670;2023-03-14T01:07:59;15.10;;;3.30;;
46815;SDS011;32787;53.316;8.670;2023-03-14T01:10:25;17.13;;;3.55;;
46815;SDS011;32787;53.316;8.670;2023-03-14T01:12:51;12.80;;;3.08;;
46815;SDS011;32787;53.316;8.670;2023-03-14T01:15:17;19.00;;;4.50;;
46815;SDS011;32787;53.316;8.670;2023-03-14T01:17:43;13.02;;;3.25;;
46815;SDS011;32787;53.316;8.670;2023-03-14T01:20:09;17.65;;;3.92;;
46815;SDS011;32787;53.316;8.670;2023-03-14T01:22:37;12.43;;;3.08;;
46815;SDS011;32787;53.316;8.670;2023-03-14T01:25:05;15.00;;;4.10;;
46815;SDS011;32787;53.316;8.670;2023-03-14T01:27:32;12.75;;;2.92;;
46815;SDS011;32787;53.316;8.670;2023-03-14T01:29:58;13.50;;;3.38;;
46815;SDS011;32787;53.316;8.670;2023-03-14T01:32:24;19.00;;;3.13;;
46815;SDS011;32787;53.316;8.670;2023-03-14T01:34:50;10.10;;;3.20;;
46815;SDS011;32787;53.316;8.670;2023-03-14T01:37:16;11.15;;;3.58;;
46815;SDS011;32787;53.316;8.670;2023-03-14T01:39:41;16.40;;;3.80;;
46815;SDS011;32787;53.316;8.670;2023-03-14T01:42:07;10.68;;;3.63;;
46815;SDS011;32787;53.316;8.670;2023-03-14T01:47:14;13.70;;;3.75;;
46815;SDS011;32787;53.316;8.670;2023-03-14T01:49:39;11.30;;;3.97;;
46815;SDS011;32787;53.316;8.670;2023-03-14T01:54:38;20.48;;;4.80;;
46815;SDS011;32787;53.316;8.670;2023-03-14T01:57:25;9.32;;;3.95;;
46815;SDS011;32787;53.316;8.670;2023-03-14T02:02:23;12.20;;;4.13;;
46815;SDS011;32787;53.316;8.670;2023-03-14T02:04:51;15.57;;;4.47;;
46815;SDS011;32787;53.316;8.670;2023-03-14T02:07:19;12.90;;;4.60;;
46815;SDS011;32787;53.316;8.670;2023-03-14T02:10:15;16.83;;;4.68;;
46815;SDS011;32787;53.316;8.670;2023-03-14T02:12:44;16.00;;;4.47;;
46815;SDS011;32787;53.316;8.670;2023-03-14T02:15:11;15.35;;;4.47;;
46815;SDS011;32787;53.316;8.670;2023-03-14T02:17:36;15.55;;;5.15;;
46815;SDS011;32787;53.316;8.670;2023-03-14T02:22:52;15.18;;;4.90;;
46815;SDS011;32787;53.316;8.670;2023-03-14T02:28:00;13.27;;;4.43;;
46815;SDS011;32787;53.316;8.670;2023-03-14T02:30:27;13.40;;;4.75;;
46815;SDS011;32787;53.316;8.670;2023-03-14T02:32:57;14.38;;;5.53;;
46815;SDS011;32787;53.316;8.670;2023-03-14T02:35:30;16.27;;;4.60;;
46815;SDS011;32787;53.316;8.670;2023-03-14T02:40:54;10.05;;;4.32;;
46815;SDS011;32787;53.316;8.670;2023-03-14T02:43:19;12.25;;;4.60;;
46815;SDS011;32787;53.316;8.670;2023-03-14T02:45:46;13.10;;;4.90;;
46815;SDS011;32787;53.316;8.670;2023-03-14T02:48:14;17.50;;;4.70;;
46815;SDS011;32787;53.316;8.670;2023-03-14T02:51:09;17.58;;;5.30;;
46815;SDS011;32787;53.316;8.670;2023-03-14T02:53:36;14.82;;;5.28;;
46815;SDS011;32787;53.316;8.670;2023-03-14T02:56:03;14.43;;;4.80;;
46815;SDS011;32787;53.316;8.670;2023-03-14T02:58:29;13.73;;;4.85;;
46815;SDS011;32787;53.316;8.670;2023-03-14T03:00:55;11.60;;;4.20;;
46815;SDS011;32787;53.316;8.670;2023-03-14T03:03:21;14.88;;;4.75;;
46815;SDS011;32787;53.316;8.670;2023-03-14T03:05:47;13.68;;;4.88;;
46815;SDS011;32787;53.316;8.670;2023-03-14T03:08:15;12.25;;;4.88;;
46815;SDS011;32787;53.316;8.670;2023-03-14T03:10:41;13.50;;;4.60;;
46815;SDS011;32787;53.316;8.670;2023-03-14T03:13:06;14.93;;;5.55;;
46815;SDS011;32787;53.316;8.670;2023-03-14T03:15:32;15.70;;;5.05;;
46815;SDS011;32787;53.316;8.670;2023-03-14T03:17:58;10.13;;;3.92;;
46815;SDS011;32787;53.316;8.670;2023-03-14T03:20:24;14.10;;;5.07;;
46815;SDS011;32787;53.316;8.670;2023-03-14T03:22:49;8.77;;;3.30;;
46815;SDS011;32787;53.316;8.670;2023-03-14T03:25:15;11.02;;;2.50;;
46815;SDS011;32787;53.316;8.670;2023-03-14T03:27:41;11.38;;;2.00;;
46815;SDS011;32787;53.316;8.670;2023-03-14T03:30:07;7.35;;;1.73;;
46815;SDS011;32787;53.316;8.670;2023-03-14T03:32:34;8.07;;;1.60;;
46815;SDS011;32787;53.316;8.670;2023-03-14T03:34:59;13.95;;;1.70;;
46815;SDS011;32787;53.316;8.670;2023-03-14T03:37:26;11.15;;;1.90;;
46815;SDS011;32787;53.316;8.670;2023-03-14T03:39:52;8.20;;;1.90;;
46815;SDS011;32787;53.316;8.670;2023-03-14T03:42:18;9.65;;;2.00;;
46815;SDS011;32787;53.316;8.670;2023-03-14T03:44:44;12.18;;;2.20;;
46815;SDS011;32787;53.316;8.670;2023-03-14T03:47:09;11.85;;;1.83;;
46815;SDS011;32787;53.316;8.670;2023-03-14T03:49:35;11.77;;;2.10;;
46815;SDS011;32787;53.316;8.670;2023-03-14T03:52:01;8.02;;;2.00;;
46815;SDS011;32787;53.316;8.670;2023-03-14T03:54:26;11.95;;;2.25;;
46815;SDS011;32787;53.316;8.670;2023-03-14T03:56:53;6.90;;;1.70;;
46815;SDS011;32787;53.316;8.670;2023-03-14T03:59:19;11.10;;;2.08;;
46815;SDS011;32787;53.316;8.670;2023-03-14T04:01:46;9.75;;;2.05;;
46815;SDS011;32787;53.316;8.670;2023-03-14T04:04:11;7.95;;;1.80;;
46815;SDS011;32787;53.316;8.670;2023-03-14T04:06:37;9.15;;;1.85;;
46815;SDS011;32787;53.316;8.670;2023-03-14T04:09:03;10.35;;;2.03;;
46815;SDS011;32787;53.316;8.670;2023-03-14T04:11:29;10.32;;;2.30;;
46815;SDS011;32787;53.316;8.670;2023-03-14T04:13:55;14.98;;;2.47;;
46815;SDS011;32787;53.316;8.670;2023-03-14T04:16:22;8.68;;;1.75;;
46815;SDS011;32787;53.316;8.670;2023-03-14T04:18:50;6.83;;;1.83;;
46815;SDS011;32787;53.316;8.670;2023-03-14T04:21:16;8.75;;;1.90;;
46815;SDS011;32787;53.316;8.670;2023-03-14T04:23:43;12.02;;;2.33;;
46815;SDS011;32787;53.316;8.670;2023-03-14T04:26:08;8.00;;;2.33;;
46815;SDS011;32787;53.316;8.670;2023-03-14T04:28:34;11.40;;;2.72;;
46815;SDS011;32787;53.316;8.670;2023-03-14T04:31:11;10.90;;;2.90;;
46815;SDS011;32787;53.316;8.670;2023-03-14T04:33:38;9.70;;;2.83;;
46815;SDS011;32787;53.316;8.670;2023-03-14T04:36:05;10.88;;;2.95;;
46815;SDS011;32787;53.316;8.670;2023-03-14T04:38:31;10.35;;;3.15;;
46815;SDS011;32787;53.316;8.670;2023-03-14T04:40:57;8.52;;;3.10;;
46815;SDS011;32787;53.316;8.670;2023-03-14T04:43:24;15.23;;;3.28;;
46815;SDS011;32787;53.316;8.670;2023-03-14T04:45:50;10.63;;;3.70;;
46815;SDS011;32787;53.316;8.670;2023-03-14T04:48:19;11.80;;;3.47;;
46815;SDS011;32787;53.316;8.670;2023-03-14T04:50:46;11.75;;;3.75;;
46815;SDS011;32787;53.316;8.670;2023-03-14T04:53:12;12.52;;;3.85;;
46815;SDS011;32787;53.316;8.670;2023-03-14T04:55:38;12.10;;;3.72;;
46815;SDS011;32787;53.316;8.670;2023-03-14T04:58:04;10.43;;;3.83;;
46815;SDS011;32787;53.316;8.670;2023-03-14T05:00:29;13.20;;;4.57;;
46815;SDS011;32787;53.316;8.670;2023-03-14T05:02:55;11.60;;;4.20;;
46815;SDS011;32787;53.316;8.670;2023-03-14T05:05:21;14.77;;;4.47;;
46815;SDS011;32787;53.316;8.670;2023-03-14T05:07:46;15.00;;;4.28;;
46815;SDS011;32787;53.316;8.670;2023-03-14T05:10:12;10.63;;;4.55;;
46815;SDS011;32787;53.316;8.670;2023-03-14T05:12:38;11.30;;;4.30;;
46815;SDS011;32787;53.316;8.670;2023-03-14T05:15:03;11.93;;;4.10;;
46815;SDS011;32787;53.316;8.670;2023-03-14T05:17:30;8.38;;;3.78;;
46815;SDS011;32787;53.316;8.670;2023-03-14T05:19:57;10.02;;;3.67;;
46815;SDS011;32787;53.316;8.670;2023-03-14T05:22:23;10.43;;;3.20;;
46815;SDS011;32787;53.316;8.670;2023-03-14T05:24:48;12.18;;;3.00;;
46815;SDS011;32787;53.316;8.670;2023-03-14T05:27:14;7.65;;;2.63;;
46815;SDS011;32787;53.316;8.670;2023-03-14T05:29:40;9.05;;;2.92;;
46815;SDS011;32787;53.316;8.670;2023-03-14T05:32:05;9.23;;;2.90;;
46815;SDS011;32787;53.316;8.670;2023-03-14T05:34:31;8.82;;;2.35;;
46815;SDS011;32787;53.316;8.670;2023-03-14T05:36:57;9.18;;;2.50;;
46815;SDS011;32787;53.316;8.670;2023-03-14T05:39:22;9.68;;;2.45;;
46815;SDS011;32787;53.316;8.670;2023-03-14T05:41:48;10.52;;;2.88;;
46815;SDS011;32787;53.316;8.670;2023-03-14T05:44:14;9.95;;;2.40;;
46815;SDS011;32787;53.316;8.670;2023-03-14T05:46:40;13.82;;;3.33;;
46815;SDS011;32787;53.316;8.670;2023-03-14T05:49:05;12.55;;;3.25;;
46815;SDS011;32787;53.316;8.670;2023-03-14T05:51:31;8.65;;;2.60;;
46815;SDS011;32787;53.316;8.670;2023-03-14T05:53:56;8.95;;;2.85;;
46815;SDS011;32787;53.316;8.670;2023-03-14T05:56:22;10.50;;;3.72;;
46815;SDS011;32787;53.316;8.670;2023-03-14T05:58:48;9.82;;;3.28;;
46815;SDS011;32787;53.316;8.670;2023-03-14T06:01:13;11.55;;;3.33;;
46815;SDS011;32787;53.316;8.670;2023-03-14T06:03:39;8.90;;;3.22;;
46815;SDS011;32787;53.316;8.670;2023-03-14T06:06:04;15.75;;;3.90;;
46815;SDS011;32787;53.316;8.670;2023-03-14T06:08:30;13.48;;;3.58;;
46815;SDS011;32787;53.316;8.670;2023-03-14T06:10:56;13.45;;;3.72;;
46815;SDS011;32787;53.316;8.670;2023-03-14T06:13:23;12.80;;;4.18;;
46815;SDS011;32787;53.316;8.670;2023-03-14T06:15:49;12.57;;;4.03;;
46815;SDS011;32787;53.316;8.670;2023-03-14T06:18:14;12.80;;;3.78;;
46815;SDS011;32787;53.316;8.670;2023-03-14T06:20:40;10.80;;;3.58;;
46815;SDS011;32787;53.316;8.670;2023-03-14T06:23:06;14.05;;;3.70;;
46815;SDS011;32787;53.316;8.670;2023-03-14T06:25:32;10.48;;;3.38;;
46815;SDS011;32787;53.316;8.670;2023-03-14T06:27:59;14.15;;;3.80;;
46815;SDS011;32787;53.316;8.670;2023-03-14T06:30:25;18.40;;;3.70;;
46815;SDS011;32787;53.316;8.670;2023-03-14T06:32:50;12.45;;;3.92;;
46815;SDS011;32787;53.316;8.670;2023-03-14T06:35:16;12.13;;;3.90;;
46815;SDS011;32787;53.316;8.670;2023-03-14T06:37:42;11.70;;;3.80;;
46815;SDS011;32787;53.316;8.670;2023-03-14T06:40:11;11.32;;;4.10;;
46815;SDS011;32787;53.316;8.670;2023-03-14T06:42:41;13.77;;;4.10;;
46815;SDS011;32787;53.316;8.670;2023-03-14T06:45:08;14.30;;;4.00;;
46815;SDS011;32787;53.316;8.670;2023-03-14T06:47:34;12.00;;;4.03;;
46815;SDS011;32787;53.316;8.670;2023-03-14T06:49:59;12.15;;;3.85;;
46815;SDS011;32787;53.316;8.670;2023-03-14T06:52:25;11.32;;;4.07;;
46815;SDS011;32787;53.316;8.670;2023-03-14T06:54:50;11.73;;;4.20;;
46815;SDS011;32787;53.316;8.670;2023-03-14T06:57:16;15.10;;;4.25;;
46815;SDS011;32787;53.316;8.670;2023-03-14T06:59:41;13.73;;;4.07;;
46815;SDS011;32787;53.316;8.670;2023-03-14T07:02:09;12.98;;;4.65;;
46815;SDS011;32787;53.316;8.670;2023-03-14T07:04:36;11.68;;;4.05;;
46815;SDS011;32787;53.316;8.670;2023-03-14T07:07:02;12.75;;;3.85;;
46815;SDS011;32787;53.316;8.670;2023-03-14T07:09:28;12.35;;;3.72;;
46815;SDS011;32787;53.316;8.670;2023-03-14T07:11:53;14.00;;;4.05;;
46815;SDS011;32787;53.316;8.670;2023-03-14T07:14:19;11.52;;;3.40;;
46815;SDS011;32787;53.316;8.670;2023-03-14T07:16:44;14.55;;;4.22;;
46815;SDS011;32787;53.316;8.670;2023-03-14T07:19:10;12.85;;;3.90;;
46815;SDS011;32787;53.316;8.670;2023-03-14T07:21:36;11.07;;;3.40;;
46815;SDS011;32787;53.316;8.670;2023-03-14T07:24:01;11.05;;;2.92;;
46815;SDS011;32787;53.316;8.670;2023-03-14T07:26:27;11.90;;;2.95;;
46815;SDS011;32787;53.316;8.670;2023-03-14T07:28:53;11.98;;;3.10;;
46815;SDS011;32787;53.316;8.670;2023-03-14T07:31:18;12.82;;;3.03;;
46815;SDS011;32787;53.316;8.670;2023-03-14T07:33:44;10.35;;;2.72;;
46815;SDS011;32787;53.316;8.670;2023-03-14T07:36:10;9.55;;;2.88;;
46815;SDS011;32787;53.316;8.670;2023-03-14T07:38:36;9.25;;;3.00;;
46815;SDS011;32787;53.316;8.670;2023-03-14T07:41:02;10.48;;;2.92;;
46815;SDS011;32787;53.316;8.670;2023-03-14T07:43:29;10.15;;;3.00;;
46815;SDS011;32787;53.316;8.670;2023-03-14T07:45:55;12.30;;;3.63;;
46815;SDS011;32787;53.316;8.670;2023-03-14T07:48:20;19.55;;;3.78;;
46815;SDS011;32787;53.316;8.670;2023-03-14T07:50:50;8.68;;;2.83;;
46815;SDS011;32787;53.316;8.670;2023-03-14T07:53:16;13.65;;;3.70;;
46815;SDS011;32787;53.316;8.670;2023-03-14T07:55:43;12.73;;;3.20;;
46815;SDS011;32787;53.316;8.670;2023-03-14T07:58:09;13.38;;;3.28;;
46815;SDS011;32787;53.316;8.670;2023-03-14T08:00:34;14.23;;;3.08;;
46815;SDS011;32787;53.316;8.670;2023-03-14T08:03:00;15.98;;;3.42;;
46815;SDS011;32787;53.316;8.670;2023-03-14T08:05:25;11.20;;;2.95;;
46815;SDS011;32787;53.316;8.670;2023-03-14T08:07:52;11.63;;;2.75;;
46815;SDS011;32787;53.316;8.670;2023-03-14T08:10:18;16.38;;;3.45;;
46815;SDS011;32787;53.316;8.670;2023-03-14T08:12:50;12.88;;;3.28;;
46815;SDS011;32787;53.316;8.670;2023-03-14T08:15:20;12.55;;;3.40;;
46815;SDS011;32787;53.316;8.670;2023-03-14T08:17:46;12.98;;;3.38;;
46815;SDS011;32787;53.316;8.670;2023-03-14T08:20:16;10.27;;;2.95;;
46815;SDS011;32787;53.316;8.670;2023-03-14T08:22:42;12.27;;;4.03;;
46815;SDS011;32787;53.316;8.670;2023-03-14T08:25:08;10.82;;;3.33;;
46815;SDS011;32787;53.316;8.670;2023-03-14T08:27:34;14.85;;;3.97;;
46815;SDS011;32787;53.316;8.670;2023-03-14T08:30:00;16.77;;;3.97;;
46815;SDS011;32787;53.316;8.670;2023-03-14T08:32:26;17.63;;;3.75;;
46815;SDS011;32787;53.316;8.670;2023-03-14T08:34:52;15.88;;;3.60;;
46815;SDS011;32787;53.316;8.670;2023-03-14T08:37:17;9.48;;;3.33;;
46815;SDS011;32787;53.316;8.670;2023-03-14T08:39:44;13.07;;;3.60;;
46815;SDS011;32787;53.316;8.670;2023-03-14T08:42:09;12.52;;;5.07;;
46815;SDS011;32787;53.316;8.670;2023-03-14T08:44:35;8.80;;;1.80;;
46815;SDS011;32787;53.316;8.670;2023-03-14T08:47:01;10.32;;;1.85;;
46815;SDS011;32787;53.316;8.670;2023-03-14T08:49:26;9.00;;;1.23;;
46815;SDS011;32787;53.316;8.670;2023-03-14T08:51:52;8.93;;;1.30;;
46815;SDS011;32787;53.316;8.670;2023-03-14T08:54:17;9.75;;;2.78;;
46815;SDS011;32787;53.316;8.670;2023-03-14T08:56:44;11.18;;;2.03;;
46815;SDS011;32787;53.316;8.670;2023-03-14T08:59:09;11.65;;;1.58;;
46815;SDS011;32787;53.316;8.670;2023-03-14T09:01:36;9.52;;;1.63;;
46815;SDS011;32787;53.316;8.670;2023-03-14T09:04:01;11.90;;;2.17;;
46815;SDS011;32787;53.316;8.670;2023-03-14T09:06:27;10.35;;;1.63;;
46815;SDS011;32787;53.316;8.670;2023-03-14T09:08:53;8.80;;;1.60;;
46815;SDS011;32787;53.316;8.670;2023-03-14T09:11:18;13.02;;;1.60;;
46815;SDS011;32787;53.316;8.670;2023-03-14T09:13:44;7.20;;;1.38;;
46815;SDS011;32787;53.316;8.670;2023-03-14T09:16:09;13.15;;;1.85;;
46815;SDS011;32787;53.316;8.670;2023-03-14T09:18:35;11.68;;;1.80;;
46815;SDS011;32787;53.316;8.670;2023-03-14T09:21:01;9.73;;;1.48;;
46815;SDS011;32787;53.316;8.670;2023-03-14T09:23:27;4.90;;;0.70;;
46815;SDS011;32787;53.316;8.670;2023-03-14T09:25:54;6.93;;;0.80;;
46815;SDS011;32787;53.316;8.670;2023-03-14T09:28:23;3.30;;;0.65;;
46815;SDS011;32787;53.316;8.670;2023-03-14T09:30:49;2.53;;;0.70;;
46815;SDS011;32787;53.316;8.670;2023-03-14T09:33:15;2.45;;;0.60;;
46815;SDS011;32787;53.316;8.670;2023-03-14T09:35:41;3.03;;;0.70;;
46815;SDS011;32787;53.316;8.670;2023-03-14T09:38:07;2.67;;;0.60;;
46815;SDS011;32787;53.316;8.670;2023-03-14T09:40:36;4.72;;;0.85;;
46815;SDS011;32787;53.316;8.670;2023-03-14T09:43:02;2.17;;;0.73;;
46815;SDS011;32787;53.316;8.670;2023-03-14T09:45:31;4.10;;;0.85;;
46815;SDS011;32787;53.316;8.670;2023-03-14T09:48:02;1.85;;;0.60;;
46815;SDS011;32787;53.316;8.670;2023-03-14T09:50:36;1.92;;;0.50;;
46815;SDS011;32787;53.316;8.670;2023-03-14T09:53:09;2.22;;;0.98;;
46815;SDS011;32787;53.316;8.670;2023-03-14T09:55:39;3.85;;;0.90;;
46815;SDS011;32787;53.316;8.670;2023-03-14T09:58:11;4.10;;;0.80;;
46815;SDS011;32787;53.316;8.670;2023-03-14T10:00:38;4.35;;;0.93;;
46815;SDS011;32787;53.316;8.670;2023-03-14T10:05:46;2.30;;;0.73;;
46815;SDS011;32787;53.316;8.670;2023-03-14T10:08:12;3.92;;;0.80;;
46815;SDS011;32787;53.316;8.670;2023-03-14T10:10:39;3.58;;;0.85;;
46815;SDS011;32787;53.316;8.670;2023-03-14T10:15:53;3.22;;;0.60;;
46815;SDS011;32787;53.316;8.670;2023-03-14T10:20:46;5.05;;;1.10;;
46815;SDS011;32787;53.316;8.670;2023-03-14T10:25:41;3.53;;;0.90;;
46815;SDS011;32787;53.316;8.670;2023-03-14T10:28:11;4.45;;;0.70;;
46815;SDS011;32787;53.316;8.670;2023-03-14T10:30:55;4.90;;;0.98;;
46815;SDS011;32787;53.316;8.670;2023-03-14T10:35:56;5.22;;;1.20;;
46815;SDS011;32787;53.316;8.670;2023-03-14T10:38:31;5.90;;;1.42;;
46815;SDS011;32787;53.316;8.670;2023-03-14T10:40:59;5.88;;;0.95;;
46815;SDS011;32787;53.316;8.670;2023-03-14T10:45:59;7.20;;;1.13;;
46815;SDS011;32787;53.316;8.670;2023-03-14T10:48:31;6.18;;;1.10;;
46815;SDS011;32787;53.316;8.670;2023-03-14T10:53:46;9.00;;;1.75;;
46815;SDS011;32787;53.316;8.670;2023-03-14T10:56:14;9.68;;;1.52;;
46815;SDS011;32787;53.316;8.670;2023-03-14T10:58:45;4.10;;;0.70;;
46815;SDS011;32787;53.316;8.670;2023-03-14T11:04:20;10.35;;;1.08;;
46815;SDS011;32787;53.316;8.670;2023-03-14T11:13:00;11.02;;;1.45;;
46815;SDS011;32787;53.316;8.670;2023-03-14T11:27:03;9.40;;;1.50;;
46815;SDS011;32787;53.316;8.670;2023-03-14T11:29:51;11.38;;;1.73;;
46815;SDS011;32787;53.316;8.670;2023-03-14T11:32:24;16.48;;;2.13;;
46815;SDS011;32787;53.316;8.670;2023-03-14T11:34:53;18.60;;;2.22;;
46815;SDS011;32787;53.316;8.670;2023-03-14T11:40:10;23.25;;;2.28;;
46815;SDS011;32787;53.316;8.670;2023-03-14T11:42:42;16.05;;;2.20;;
46815;SDS011;32787;53.316;8.670;2023-03-14T11:45:14;16.00;;;2.43;;
46815;SDS011;32787;53.316;8.670;2023-03-14T11:47:43;18.15;;;2.17;;
46815;SDS011;32787;53.316;8.670;2023-03-14T11:50:14;14.73;;;1.98;;
46815;SDS011;32787;53.316;8.670;2023-03-14T11:55:22;17.60;;;2.25;;
46815;SDS011;32787;53.316;8.670;2023-03-14T11:58:09;19.80;;;2.88;;
46815;SDS011;32787;53.316;8.670;2023-03-14T12:00:38;15.70;;;2.20;;
46815;SDS011;32787;53.316;8.670;2023-03-14T12:03:19;18.67;;;2.97;;
46815;SDS011;32787;53.316;8.670;2023-03-14T12:06:09;19.73;;;2.80;;
46815;SDS011;32787;53.316;8.670;2023-03-14T12:16:55;18.48;;;2.85;;
46815;SDS011;32787;53.316;8.670;2023-03-14T12:19:30;15.32;;;2.22;;
46815;SDS011;32787;53.316;8.670;2023-03-14T12:22:08;15.82;;;2.88;;
46815;SDS011;32787;53.316;8.670;2023-03-14T12:24:38;13.60;;;3.13;;
46815;SDS011;32787;53.316;8.670;2023-03-14T12:27:13;21.58;;;2.42;;
46815;SDS011;32787;53.316;8.670;2023-03-14T12:35:35;15.60;;;3.03;;
46815;SDS011;32787;53.316;8.670;2023-03-14T12:38:02;16.48;;;1.95;;
46815;SDS011;32787;53.316;8.670;2023-03-14T12:40:38;16.38;;;1.83;;
46815;SDS011;32787;53.316;8.670;2023-03-14T12:51:33;11.70;;;1.80;;
46815;SDS011;32787;53.316;8.670;2023-03-14T12:59:40;14.75;;;2.38;;
46815;SDS011;32787;53.316;8.670;2023-03-14T13:10:28;7.22;;;1.30;;
46815;SDS011;32787;53.316;8.670;2023-03-14T13:13:03;9.60;;;1.80;;
46815;SDS011;32787;53.316;8.670;2023-03-14T13:15:47;11.85;;;1.52;;
46815;SDS011;32787;53.316;8.670;2023-03-14T13:18:17;10.45;;;1.67;;
46815;SDS011;32787;53.316;8.670;2023-03-14T13:20:51;13.80;;;1.90;;
46815;SDS011;32787;53.316;8.670;2023-03-14T13:23:24;10.70;;;1.48;;
46815;SDS011;32787;53.316;8.670;2023-03-14T13:25:51;13.93;;;1.88;;
46815;SDS011;32787;53.316;8.670;2023-03-14T13:28:17;17.83;;;2.08;;
46815;SDS011;32787;53.316;8.670;2023-03-14T13:30:44;13.20;;;2.10;;
46815;SDS011;32787;53.316;8.670;2023-03-14T13:33:15;9.35;;;1.67;;
46815;SDS011;32787;53.316;8.670;2023-03-14T13:38:23;16.00;;;2.47;;
46815;SDS011;32787;53.316;8.670;2023-03-14T13:40:51;19.73;;;2.55;;
46815;SDS011;32787;53.316;8.670;2023-03-14T13:43:25;13.10;;;2.25;;
46815;SDS011;32787;53.316;8.670;2023-03-14T13:46:00;15.88;;;2.20;;
46815;SDS011;32787;53.316;8.670;2023-03-14T13:48:30;13.25;;;2.22;;
46815;SDS011;32787;53.316;8.670;2023-03-14T13:51:02;13.27;;;2.13;;
46815;SDS011;32787;53.316;8.670;2023-03-14T13:53:30;12.90;;;1.80;;
46815;SDS011;32787;53.316;8.670;2023-03-14T13:55:57;18.58;;;1.50;;
46815;SDS011;32787;53.316;8.670;2023-03-14T13:58:27;11.10;;;1.52;;
46815;SDS011;32787;53.316;8.670;2023-03-14T14:00:56;11.90;;;1.55;;
46815;SDS011;32787;53.316;8.670;2023-03-14T14:03:28;10.65;;;1.35;;
46815;SDS011;32787;53.316;8.670;2023-03-14T14:06:01;14.65;;;2.33;;
46815;SDS011;32787;53.316;8.670;2023-03-14T14:08:27;10.60;;;1.55;;
46815;SDS011;32787;53.316;8.670;2023-03-14T14:10:55;9.75;;;1.50;;
46815;SDS011;32787;53.316;8.670;2023-03-14T14:13:24;10.10;;;1.60;;
46815;SDS011;32787;53.316;8.670;2023-03-14T14:15:54;12.50;;;1.52;;
46815;SDS011;32787;53.316;8.670;2023-03-14T14:18:21;12.93;;;2.03;;
46815;SDS011;32787;53.316;8.670;2023-03-14T14:20:51;11.27;;;1.63;;
46815;SDS011;32787;53.316;8.670;2023-03-14T14:23:18;9.45;;;1.35;;
46815;SDS011;32787;53.316;8.670;2023-03-14T14:25:50;11.90;;;1.77;;
46815;SDS011;32787;53.316;8.670;2023-03-14T14:28:20;14.60;;;1.60;;
46815;SDS011;32787;53.316;8.670;2023-03-14T14:31:05;11.15;;;2.08;;
46815;SDS011;32787;53.316;8.670;2023-03-14T14:33:40;14.63;;;1.65;;
46815;SDS011;32787;53.316;8.670;2023-03-14T14:39:11;10.55;;;1.95;;
46815;SDS011;32787;53.316;8.670;2023-03-14T14:41:45;8.60;;;1.52;;
46815;SDS011;32787;53.316;8.670;2023-03-14T14:44:16;7.22;;;1.13;;
46815;SDS011;32787;53.316;8.670;2023-03-14T14:46:43;8.93;;;1.40;;
46815;SDS011;32787;53.316;8.670;2023-03-14T14:49:10;12.77;;;1.67;;
46815;SDS011;32787;53.316;8.670;2023-03-14T14:51:43;11.90;;;1.55;;
46815;SDS011;32787;53.316;8.670;2023-03-14T14:54:17;8.85;;;1.70;;
46815;SDS011;32787;53.316;8.670;2023-03-14T14:56:48;8.30;;;1.27;;
46815;SDS011;32787;53.316;8.670;2023-03-14T14:59:23;9.05;;;1.85;;
46815;SDS011;32787;53.316;8.670;2023-03-14T15:02:00;11.10;;;1.48;;
46815;SDS011;32787;53.316;8.670;2023-03-14T15:04:29;15.63;;;2.25;;
46815;SDS011;32787;53.316;8.670;2023-03-14T15:06:56;9.48;;;1.58;;
46815;SDS011;32787;53.316;8.670;2023-03-14T15:09:21;11.77;;;2.08;;
46815;SDS011;32787;53.316;8.670;2023-03-14T15:11:48;13.98;;;1.80;;
46815;SDS011;32787;53.316;8.670;2023-03-14T15:14:13;8.82;;;1.60;;
46815;SDS011;32787;53.316;8.670;2023-03-14T15:16:39;8.80;;;1.60;;
46815;SDS011;32787;53.316;8.670;2023-03-14T15:19:12;14.40;;;1.83;;
46815;SDS011;32787;53.316;8.670;2023-03-14T15:21:44;17.55;;;2.28;;
46815;SDS011;32787;53.316;8.670;2023-03-14T15:24:10;15.90;;;1.95;;
46815;SDS011;32787;53.316;8.670;2023-03-14T15:26:35;15.70;;;2.30;;
46815;SDS011;32787;53.316;8.670;2023-03-14T15:29:01;14.85;;;2.13;;
46815;SDS011;32787;53.316;8.670;2023-03-14T15:31:27;12.75;;;1.67;;
46815;SDS011;32787;53.316;8.670;2023-03-14T15:33:52;17.25;;;2.05;;
46815;SDS011;32787;53.316;8.670;2023-03-14T15:38:55;11.80;;;1.30;;
46815;SDS011;32787;53.316;8.670;2023-03-14T15:41:21;12.30;;;1.83;;
46815;SDS011;32787;53.316;8.670;2023-03-14T15:43:48;17.38;;;1.83;;
46815;SDS011;32787;53.316;8.670;2023-03-14T15:46:14;10.88;;;1.23;;
46815;SDS011;32787;53.316;8.670;2023-03-14T15:48:42;13.10;;;1.25;;
46815;SDS011;32787;53.316;8.670;2023-03-14T15:51:08;9.98;;;1.50;;
46815;SDS011;32787;53.316;8.670;2023-03-14T15:53:34;6.93;;;1.50;;
46815;SDS011;32787;53.316;8.670;2023-03-14T15:56:01;8.38;;;1.67;;
46815;SDS011;32787;53.316;8.670;2023-03-14T15:58:28;11.57;;;1.70;;
46815;SDS011;32787;53.316;8.670;2023-03-14T16:00:53;6.78;;;0.93;;
46815;SDS011;32787;53.316;8.670;2023-03-14T16:03:19;7.97;;;1.63;;
46815;SDS011;32787;53.316;8.670;2023-03-14T16:05:45;6.97;;;1.95;;
46815;SDS011;32787;53.316;8.670;2023-03-14T16:08:11;11.45;;;1.40;;
46815;SDS011;32787;53.316;8.670;2023-03-14T16:10:36;10.18;;;2.05;;
46815;SDS011;32787;53.316;8.670;2023-03-14T16:13:03;12.20;;;1.92;;
46815;SDS011;32787;53.316;8.670;2023-03-14T16:15:29;10.80;;;1.85;;
46815;SDS011;32787;53.316;8.670;2023-03-14T16:17:55;12.23;;;1.52;;
46815;SDS011;32787;53.316;8.670;2023-03-14T16:20:21;14.50;;;1.77;;
46815;SDS011;32787;53.316;8.670;2023-03-14T16:22:47;13.52;;;1.23;;
46815;SDS011;32787;53.316;8.670;2023-03-14T16:25:14;11.68;;;1.60;;
46815;SDS011;32787;53.316;8.670;2023-03-14T16:27:40;8.05;;;1.70;;